createdAt,value
2018-04-14T00:01:34.226Z,13.50
2018-04-14T00:04:00.855Z,12.98
2018-04-14T00:06:27.580Z,13.15
2018-04-14T00:08:54.227Z,14.15
2018-04-14T00:11:21.011Z,13.43
2018-04-14T00:13:47.703Z,13.25
2018-04-14T00:16:14.451Z,13.45
2018-04-14T00:18:41.088Z,14.20
2018-04-14T00:21:07.719Z,14.75
2018-04-14T00:23:34.369Z,13.07
2018-04-14T00:26:00.991Z,13.93
2018-04-14T00:28:27.623Z,14.50
2018-04-14T00:30:54.392Z,14.15
2018-04-14T00:33:21.018Z,14.10
2018-04-14T00:35:47.683Z,16.00
2018-04-14T00:38:14.399Z,14.02
2018-04-14T00:40:41.029Z,14.32
2018-04-14T00:43:07.664Z,17.58
2018-04-14T00:45:34.310Z,16.12
2018-04-14T00:48:00.939Z,14.00
2018-04-14T00:50:27.571Z,14.50
2018-04-14T00:52:54.229Z,15.18
2018-04-14T00:55:20.862Z,15.77
2018-04-14T00:57:47.521Z,15.43
2018-04-14T01:00:14.247Z,16.37
2018-04-14T01:02:40.995Z,15.65
2018-04-14T01:05:07.743Z,15.18
2018-04-14T01:07:34.380Z,14.80
2018-04-14T01:10:01.035Z,15.23
2018-04-14T01:12:27.766Z,14.73
2018-04-14T01:14:54.418Z,14.10
2018-04-14T01:17:21.057Z,13.38
2018-04-14T01:19:47.682Z,15.30
2018-04-14T01:22:14.337Z,13.77
2018-04-14T01:24:40.970Z,13.15
2018-04-14T01:27:07.619Z,15.30
2018-04-14T01:29:34.400Z,15.10
2018-04-14T01:32:01.069Z,15.20
2018-04-14T01:34:27.723Z,14.98
2018-04-14T01:36:54.359Z,16.80
2018-04-14T01:39:21.002Z,16.35
2018-04-14T01:41:47.629Z,15.13
2018-04-14T01:44:14.262Z,16.17
2018-04-14T01:46:41.016Z,17.27
2018-04-14T01:49:07.643Z,16.70
2018-04-14T01:51:34.383Z,16.00
2018-04-14T01:54:01.027Z,16.05
2018-04-14T01:56:27.669Z,17.15
2018-04-14T01:58:54.408Z,18.23
2018-04-14T02:01:21.040Z,15.77
2018-04-14T02:03:47.695Z,18.02
2018-04-14T02:06:14.323Z,16.67
2018-04-14T02:08:41.059Z,17.20
2018-04-14T02:11:07.703Z,16.15
2018-04-14T02:13:34.447Z,16.77
2018-04-14T02:16:01.091Z,18.42
2018-04-14T02:18:27.822Z,17.70
2018-04-14T02:20:54.466Z,18.40
2018-04-14T02:23:21.111Z,17.77
2018-04-14T02:25:47.851Z,18.15
2018-04-14T02:28:14.495Z,19.23
2018-04-14T02:30:41.125Z,22.35
2018-04-14T02:33:07.759Z,18.77
2018-04-14T02:35:34.506Z,18.95
2018-04-14T02:38:01.135Z,18.70
2018-04-14T02:40:27.788Z,19.92
2018-04-14T02:42:54.528Z,18.33
2018-04-14T02:45:21.268Z,18.85
2018-04-14T02:47:48.006Z,18.27
2018-04-14T02:50:14.636Z,17.17
2018-04-14T02:52:41.298Z,17.40
2018-04-14T02:55:08.035Z,18.23
2018-04-14T02:57:34.677Z,16.27
2018-04-14T03:00:01.404Z,15.27
2018-04-14T03:02:28.052Z,15.35
2018-04-14T03:04:54.695Z,16.30
2018-04-14T03:07:21.318Z,19.60
2018-04-14T03:09:47.948Z,15.73
2018-04-14T03:12:14.596Z,15.77
2018-04-14T03:14:41.233Z,15.90
2018-04-14T03:17:07.908Z,14.82
2018-04-14T03:19:34.538Z,14.18
2018-04-14T03:22:01.263Z,16.02
2018-04-14T03:24:28.008Z,16.50
2018-04-14T03:26:54.821Z,16.50
2018-04-14T03:29:21.500Z,15.38
2018-04-14T03:31:48.241Z,15.48
2018-04-14T03:34:14.873Z,19.92
2018-04-14T03:36:41.602Z,15.77
2018-04-14T03:39:08.246Z,14.68
2018-04-14T03:41:34.996Z,15.27
2018-04-14T03:44:02.272Z,15.57
2018-04-14T03:46:29.159Z,15.65
2018-04-14T03:48:55.832Z,16.17
2018-04-14T03:51:22.537Z,17.05
2018-04-14T03:53:49.187Z,14.05
2018-04-14T03:56:15.884Z,14.00
2018-04-14T03:58:42.592Z,16.87
2018-04-14T04:01:09.240Z,14.63
2018-04-14T04:03:35.969Z,14.65
2018-04-14T04:06:02.620Z,15.50
2018-04-14T04:08:29.385Z,14.27
2018-04-14T04:10:56.468Z,14.65
2018-04-14T04:13:23.600Z,14.93
2018-04-14T04:15:50.403Z,14.70
2018-04-14T04:18:23.007Z,14.05
2018-04-14T04:20:55.402Z,14.18
2018-04-14T04:23:28.050Z,16.73
2018-04-14T04:25:54.737Z,12.70
2018-04-14T04:28:23.421Z,12.70
2018-04-14T04:30:50.193Z,13.18
2018-04-14T04:33:17.733Z,12.27
2018-04-14T04:35:45.379Z,13.55
2018-04-14T04:38:12.510Z,13.88
2018-04-14T04:40:40.391Z,13.23
2018-04-14T04:43:07.090Z,12.50
2018-04-14T04:45:33.719Z,15.73
2018-04-14T04:48:00.364Z,13.60
2018-04-14T04:50:26.986Z,13.60
2018-04-14T04:52:53.633Z,13.30
2018-04-14T04:55:20.370Z,14.77
2018-04-14T04:57:47.006Z,15.07
2018-04-14T05:00:13.657Z,14.25
2018-04-14T05:02:40.291Z,13.73
2018-04-14T05:05:07.047Z,14.45
2018-04-14T05:07:33.697Z,13.93
2018-04-14T05:10:00.327Z,12.77
2018-04-14T05:12:26.975Z,14.02
2018-04-14T05:14:53.602Z,12.23
2018-04-14T05:17:20.335Z,13.82
2018-04-14T05:19:46.997Z,14.82
2018-04-14T05:22:13.623Z,13.48
2018-04-14T05:24:40.272Z,13.00
2018-04-14T05:27:06.910Z,11.73
2018-04-14T05:29:33.654Z,12.70
2018-04-14T05:32:00.371Z,12.37
2018-04-14T05:34:26.994Z,12.05
2018-04-14T05:36:53.756Z,12.10
2018-04-14T05:39:20.378Z,11.12
2018-04-14T05:41:47.015Z,12.00
2018-04-14T05:44:13.658Z,13.10
2018-04-14T05:46:40.320Z,12.23
2018-04-14T05:49:07.053Z,13.80
2018-04-14T05:51:33.691Z,10.90
2018-04-14T05:54:00.331Z,11.63
2018-04-14T05:56:27.066Z,11.18
2018-04-14T05:58:53.695Z,11.12
2018-04-14T06:01:20.448Z,11.43
2018-04-14T06:03:47.084Z,11.25
2018-04-14T06:06:13.752Z,10.68
2018-04-14T06:08:40.389Z,9.82
2018-04-14T06:11:07.030Z,10.30
2018-04-14T06:13:33.671Z,9.85
2018-04-14T06:16:00.306Z,11.50
2018-04-14T06:18:27.027Z,10.27
2018-04-14T06:20:53.765Z,10.95
2018-04-14T06:23:20.508Z,11.27
2018-04-14T06:25:47.151Z,10.88
2018-04-14T06:28:14.759Z,10.30
2018-04-14T06:30:41.460Z,10.60
2018-04-14T06:33:08.099Z,12.20
2018-04-14T06:35:34.726Z,11.27
2018-04-14T06:38:01.360Z,11.77
2018-04-14T06:40:28.111Z,11.10
2018-04-14T06:42:54.851Z,11.82
2018-04-14T06:45:21.484Z,11.25
2018-04-14T06:47:48.227Z,11.50
2018-04-14T06:50:14.895Z,12.35
2018-04-14T06:52:41.502Z,12.90
2018-04-14T06:55:08.262Z,11.00
2018-04-14T06:57:34.907Z,11.45
2018-04-14T07:00:01.636Z,13.02
2018-04-14T07:02:28.303Z,13.60
2018-04-14T07:04:54.987Z,12.88
2018-04-14T07:07:21.611Z,12.02
2018-04-14T07:09:48.245Z,12.55
2018-04-14T07:12:14.937Z,14.25
2018-04-14T07:14:41.578Z,13.25
2018-04-14T07:17:08.307Z,13.65
2018-04-14T07:19:34.952Z,13.43
2018-04-14T07:22:01.640Z,13.77
2018-04-14T07:24:28.332Z,13.23
2018-04-14T07:26:54.972Z,12.93
2018-04-14T07:29:21.703Z,13.82
2018-04-14T07:31:48.361Z,13.27
2018-04-14T07:34:14.995Z,13.55
2018-04-14T07:36:41.628Z,12.02
2018-04-14T07:39:08.276Z,13.62
2018-04-14T07:41:34.924Z,14.05
2018-04-14T07:44:01.642Z,13.45
2018-04-14T07:46:28.273Z,15.65
2018-04-14T07:48:54.908Z,13.27
2018-04-14T07:51:21.551Z,13.43
2018-04-14T07:53:48.184Z,12.82
2018-04-14T07:56:15.089Z,13.55
2018-04-14T07:58:41.719Z,13.57
2018-04-14T08:01:08.351Z,12.07
2018-04-14T08:03:35.004Z,12.80
2018-04-14T08:06:01.704Z,13.10
2018-04-14T08:08:28.350Z,13.20
2018-04-14T08:10:54.985Z,12.13
2018-04-14T08:13:21.723Z,12.23
2018-04-14T08:15:48.458Z,13.15
2018-04-14T08:18:15.092Z,12.18
2018-04-14T08:20:41.734Z,12.05
2018-04-14T08:23:08.368Z,11.60
2018-04-14T08:25:34.998Z,12.52
2018-04-14T08:28:01.665Z,14.18
2018-04-14T08:30:28.307Z,12.75
2018-04-14T08:32:54.961Z,10.68
2018-04-14T08:35:21.674Z,12.02
2018-04-14T08:37:48.302Z,12.82
2018-04-14T08:40:15.055Z,11.27
2018-04-14T08:42:41.704Z,12.13
2018-04-14T08:45:08.352Z,11.85
2018-04-14T08:47:34.983Z,11.32
2018-04-14T08:50:01.613Z,11.00
2018-04-14T08:52:28.251Z,12.32
2018-04-14T08:54:54.957Z,10.93
2018-04-14T08:57:21.669Z,10.13
2018-04-14T08:59:48.375Z,10.45
2018-04-14T09:02:15.015Z,10.30
2018-04-14T09:04:41.756Z,10.82
2018-04-14T09:07:08.499Z,10.30
2018-04-14T09:09:35.235Z,9.93
2018-04-14T09:12:01.906Z,10.20
2018-04-14T09:14:28.527Z,9.02
2018-04-14T09:16:55.172Z,9.93
2018-04-14T09:19:21.891Z,8.57
2018-04-14T09:21:48.532Z,8.98
2018-04-14T09:24:15.152Z,8.30
2018-04-14T09:26:41.815Z,8.93
2018-04-14T09:29:08.551Z,8.77
2018-04-14T09:31:35.172Z,8.57
2018-04-14T09:34:01.806Z,8.82
2018-04-14T09:36:28.431Z,8.85
2018-04-14T09:38:55.059Z,8.25
2018-04-14T09:41:21.692Z,7.70
2018-04-14T09:43:48.311Z,8.65
2018-04-14T09:46:15.024Z,7.85
2018-04-14T09:48:41.651Z,8.18
2018-04-14T09:51:08.299Z,7.20
2018-04-14T09:53:34.930Z,7.20
2018-04-14T09:56:01.574Z,8.25
2018-04-14T09:58:28.210Z,7.65
2018-04-14T10:01:11.640Z,8.30
2018-04-14T10:03:38.278Z,7.57
2018-04-14T10:06:04.932Z,5.20
2018-04-14T10:08:31.551Z,5.95
2018-04-14T10:10:58.236Z,5.40
2018-04-14T10:13:24.868Z,6.15
2018-04-14T10:15:51.582Z,5.85
2018-04-14T10:18:18.203Z,4.85
2018-04-14T10:20:44.840Z,3.85
2018-04-14T10:23:11.508Z,4.60
2018-04-14T10:25:38.139Z,5.25
2018-04-14T10:28:04.775Z,3.80
2018-04-14T10:30:31.394Z,4.47
2018-04-14T10:32:58.087Z,3.85
2018-04-14T10:35:24.716Z,3.60
2018-04-14T10:37:51.375Z,2.60
2018-04-14T10:40:18.002Z,2.35
2018-04-14T10:42:44.626Z,3.67
2018-04-14T10:45:11.250Z,2.87
2018-04-14T10:47:37.994Z,2.60
2018-04-14T10:50:04.620Z,3.78
2018-04-14T10:52:31.272Z,3.85
2018-04-14T10:54:57.941Z,4.05
2018-04-14T10:57:24.668Z,5.57
2018-04-14T10:59:51.300Z,3.47
2018-04-14T11:02:17.962Z,3.40
2018-04-14T11:04:44.605Z,3.53
2018-04-14T11:07:11.319Z,3.65
2018-04-14T11:09:37.943Z,3.35
2018-04-14T11:12:04.600Z,2.25
2018-04-14T11:14:31.224Z,4.62
2018-04-14T11:16:57.863Z,2.50
2018-04-14T11:19:24.487Z,3.65
2018-04-14T11:21:51.102Z,2.75
2018-04-14T11:24:17.736Z,3.08
2018-04-14T11:26:44.422Z,2.53
2018-04-14T11:29:11.059Z,3.42
2018-04-14T11:31:37.686Z,2.50
2018-04-14T11:34:04.353Z,3.10
2018-04-14T11:36:30.982Z,3.00
2018-04-14T11:38:57.621Z,3.78
2018-04-14T11:41:24.263Z,3.25
2018-04-14T11:43:50.895Z,2.87
2018-04-14T11:46:17.536Z,2.90
2018-04-14T11:48:44.204Z,3.10
2018-04-14T11:51:10.826Z,2.53
2018-04-14T11:53:37.471Z,3.17
2018-04-14T11:56:04.203Z,2.92
2018-04-14T11:58:30.827Z,1.90
2018-04-14T12:00:57.484Z,2.15
2018-04-14T12:03:24.111Z,1.92
2018-04-14T12:05:50.756Z,3.58
2018-04-14T12:08:17.372Z,2.83
2018-04-14T12:10:44.004Z,1.90
2018-04-14T12:13:10.672Z,7.82
2018-04-14T12:15:37.299Z,7.00
2018-04-14T12:18:04.056Z,5.95
2018-04-14T12:20:30.795Z,6.95
2018-04-14T12:22:57.866Z,2.40
2018-04-14T12:25:24.603Z,3.15
2018-04-14T12:27:51.394Z,6.50
2018-04-14T12:30:18.040Z,4.05
2018-04-14T12:32:44.678Z,3.10
2018-04-14T12:35:13.678Z,2.05
2018-04-14T12:37:41.387Z,5.32
2018-04-14T12:40:09.077Z,4.32
2018-04-14T12:42:36.612Z,1.48
2018-04-14T12:45:03.293Z,1.83
2018-04-14T12:47:30.082Z,2.80
2018-04-14T12:49:56.718Z,1.70
2018-04-14T12:52:23.356Z,4.47
2018-04-14T12:54:50.199Z,8.48
2018-04-14T12:57:16.822Z,2.40
2018-04-14T12:59:43.447Z,7.32
2018-04-14T13:02:10.088Z,4.47
2018-04-14T13:04:36.875Z,1.80
2018-04-14T13:07:03.521Z,2.47
2018-04-14T13:09:30.163Z,2.75
2018-04-14T13:11:56.798Z,3.08
2018-04-14T13:14:23.425Z,3.08
2018-04-14T13:16:50.055Z,2.60
2018-04-14T13:19:16.834Z,5.32
2018-04-14T13:21:43.519Z,2.90
2018-04-14T13:24:10.158Z,9.50
2018-04-14T13:26:36.803Z,1.57
2018-04-14T13:29:03.429Z,1.60
2018-04-14T13:31:30.088Z,4.50
2018-04-14T13:33:56.707Z,3.37
2018-04-14T13:36:23.368Z,2.07
2018-04-14T13:38:50.003Z,2.97
2018-04-14T13:41:16.628Z,1.80
2018-04-14T13:43:43.251Z,0.83
2018-04-14T13:46:09.887Z,2.73
2018-04-14T13:48:36.507Z,3.43
2018-04-14T13:51:03.123Z,1.50
2018-04-14T13:53:29.832Z,1.30
2018-04-14T13:55:56.451Z,1.50
2018-04-14T13:58:23.079Z,3.40
2018-04-14T14:00:49.720Z,4.80
2018-04-14T14:03:16.341Z,2.00
2018-04-14T14:05:43.027Z,3.60
2018-04-14T14:08:09.763Z,2.10
2018-04-14T14:10:36.404Z,1.20
2018-04-14T14:13:03.048Z,4.00
2018-04-14T14:15:29.793Z,1.63
2018-04-14T14:17:56.428Z,1.37
2018-04-14T14:20:23.063Z,1.87
2018-04-14T14:22:49.695Z,8.20
2018-04-14T14:25:16.339Z,3.20
2018-04-14T14:27:42.950Z,1.07
2018-04-14T14:30:09.623Z,6.33
2018-04-14T14:32:36.262Z,11.67
2018-04-14T14:35:02.878Z,2.97
2018-04-14T14:37:29.534Z,1.23
2018-04-14T14:39:56.160Z,0.50
2018-04-14T14:42:22.816Z,0.63
2018-04-14T14:44:49.461Z,0.70
2018-04-14T14:47:16.191Z,0.50
2018-04-14T14:49:42.831Z,0.53
2018-04-14T14:52:09.478Z,0.93
2018-04-14T14:54:36.115Z,0.70
2018-04-14T14:57:02.855Z,0.90
2018-04-14T14:59:29.468Z,0.93
2018-04-14T15:01:56.136Z,3.57
2018-04-14T15:04:22.751Z,0.70
2018-04-14T15:06:49.379Z,0.70
2018-04-14T15:09:16.006Z,0.83
2018-04-14T15:11:42.636Z,0.37
2018-04-14T15:14:09.352Z,0.60
2018-04-14T15:16:35.987Z,1.00
2018-04-14T15:19:02.607Z,0.57
2018-04-14T15:21:29.352Z,0.60
2018-04-14T15:23:55.980Z,7.10
2018-04-14T15:26:22.622Z,1.37
2018-04-14T15:28:49.243Z,6.60
2018-04-14T15:31:15.867Z,0.83
2018-04-14T15:33:42.499Z,0.90
2018-04-14T15:36:09.308Z,0.40
2018-04-14T15:38:36.050Z,0.80
2018-04-14T15:41:02.762Z,10.13
2018-04-14T15:43:29.566Z,1.00
2018-04-14T15:45:56.208Z,0.50
2018-04-14T15:48:22.833Z,4.23
2018-04-14T15:50:49.529Z,0.63
2018-04-14T15:53:16.163Z,0.90
2018-04-14T15:55:42.783Z,1.20
2018-04-14T15:58:09.419Z,2.40
2018-04-14T16:00:36.079Z,5.57
2018-04-14T16:03:02.819Z,4.00
2018-04-14T16:05:29.444Z,0.67
2018-04-14T16:07:56.068Z,2.07
2018-04-14T16:10:22.705Z,2.83
2018-04-14T16:12:49.384Z,0.63
2018-04-14T16:15:16.054Z,2.80
2018-04-14T16:17:42.759Z,2.17
2018-04-14T16:20:09.378Z,1.00
2018-04-14T16:22:36.021Z,0.90
2018-04-14T16:25:02.638Z,2.17
2018-04-14T16:27:29.340Z,1.67
2018-04-14T16:29:55.968Z,1.00
2018-04-14T16:32:22.600Z,1.00
2018-04-14T16:34:49.362Z,0.90
2018-04-14T16:37:16.088Z,0.40
2018-04-14T16:39:42.742Z,1.00
2018-04-14T16:42:09.451Z,1.60
2018-04-14T16:44:36.076Z,0.73
2018-04-14T16:47:02.730Z,4.45
2018-04-14T16:49:29.351Z,2.20
2018-04-14T16:51:56.011Z,1.00
2018-04-14T16:54:22.631Z,1.30
2018-04-14T16:56:49.255Z,1.62
2018-04-14T16:59:15.921Z,1.75
2018-04-14T17:01:42.567Z,6.10
2018-04-14T17:04:09.205Z,3.83
2018-04-14T17:06:35.824Z,4.97
2018-04-14T17:09:02.452Z,5.40
2018-04-14T17:11:29.132Z,4.47
2018-04-14T17:13:55.756Z,4.47
2018-04-14T17:16:22.404Z,8.35
2018-04-14T17:18:49.190Z,7.65
2018-04-14T17:21:15.885Z,5.87
2018-04-14T17:23:42.524Z,2.25
2018-04-14T17:26:09.208Z,1.20
2018-04-14T17:28:35.904Z,1.10
2018-04-14T17:31:02.536Z,2.03
2018-04-14T17:33:29.169Z,2.70
2018-04-14T17:35:55.803Z,1.92
2018-04-14T17:38:22.418Z,2.03
2018-04-14T17:40:49.055Z,4.03
2018-04-14T17:43:15.739Z,2.50
2018-04-14T17:45:42.364Z,4.35
2018-04-14T17:48:09.043Z,3.75
2018-04-14T17:50:35.764Z,6.53
2018-04-14T17:53:02.505Z,7.53
2018-04-14T17:55:29.132Z,8.25
2018-04-14T17:57:55.759Z,8.20
2018-04-14T18:00:22.424Z,9.00
2018-04-14T18:02:49.042Z,6.40
2018-04-14T18:05:15.673Z,5.95
2018-04-14T18:07:42.294Z,6.80
2018-04-14T18:10:08.930Z,5.60
2018-04-14T18:12:35.637Z,4.85
2018-04-14T18:15:02.360Z,6.55
2018-04-14T18:17:29.094Z,5.37
2018-04-14T18:19:55.716Z,4.20
2018-04-14T18:22:22.340Z,4.07
2018-04-14T18:24:48.978Z,11.20
2018-04-14T18:27:15.612Z,13.77
2018-04-14T18:29:42.314Z,8.27
2018-04-14T18:32:08.939Z,8.73
2018-04-14T18:34:35.555Z,7.18
2018-04-14T18:37:02.231Z,6.57
2018-04-14T18:39:28.854Z,5.75
2018-04-14T18:41:55.498Z,4.75
2018-04-14T18:44:22.126Z,4.10
2018-04-14T18:46:48.754Z,4.78
2018-04-14T18:49:15.388Z,4.78
2018-04-14T18:51:42.619Z,4.85
2018-04-14T18:54:09.286Z,3.70
2018-04-14T18:56:35.926Z,3.25
2018-04-14T18:59:02.571Z,3.45
2018-04-14T19:01:29.338Z,3.50
2018-04-14T19:03:55.959Z,2.70
2018-04-14T19:06:22.590Z,3.97
2018-04-14T19:08:49.255Z,31.00
2018-04-14T19:11:15.977Z,17.27
2018-04-14T19:13:42.710Z,9.85
2018-04-14T19:16:09.347Z,8.88
2018-04-14T19:18:36.121Z,7.07
2018-04-14T19:21:02.748Z,7.65
2018-04-14T19:23:29.384Z,10.35
2018-04-14T19:25:56.036Z,12.37
2018-04-14T19:28:22.751Z,11.52
2018-04-14T19:30:49.395Z,10.18
2018-04-14T19:33:16.021Z,8.68
2018-04-14T19:35:42.648Z,5.50
2018-04-14T19:38:09.283Z,4.47
2018-04-14T19:40:35.908Z,4.68
2018-04-14T19:43:02.582Z,5.78
2018-04-14T19:45:29.203Z,4.20
2018-04-14T19:47:55.841Z,5.10
2018-04-14T19:50:22.500Z,6.53
2018-04-14T19:52:49.124Z,6.80
2018-04-14T19:55:15.768Z,7.50
2018-04-14T19:57:42.440Z,6.90
2018-04-14T20:00:09.163Z,6.80
2018-04-14T20:02:35.791Z,7.80
2018-04-14T20:05:02.417Z,8.50
2018-04-14T20:07:29.047Z,9.02
2018-04-14T20:09:55.717Z,8.60
2018-04-14T20:12:22.335Z,7.15
2018-04-14T20:14:48.968Z,7.87
2018-04-14T20:17:15.603Z,6.70
2018-04-14T20:19:42.326Z,6.68
2018-04-14T20:22:08.931Z,6.65
2018-04-14T20:24:35.580Z,7.03
2018-04-14T20:27:02.212Z,7.50
2018-04-14T20:29:28.927Z,7.80
2018-04-14T20:31:55.554Z,7.78
2018-04-14T20:34:22.187Z,10.45
2018-04-14T20:36:48.855Z,8.27
2018-04-14T20:39:15.480Z,8.65
2018-04-14T20:41:42.154Z,5.70
2018-04-14T20:44:08.879Z,5.50
2018-04-14T20:46:35.608Z,5.00
2018-04-14T20:49:02.348Z,5.53
2018-04-14T20:51:28.997Z,4.95
2018-04-14T20:53:55.740Z,5.53
2018-04-14T20:56:22.376Z,6.43
2018-04-14T20:58:49.003Z,5.57
2018-04-14T21:01:15.649Z,5.37
2018-04-14T21:03:42.272Z,5.15
2018-04-14T21:06:08.894Z,4.65
2018-04-14T21:08:35.536Z,5.05
2018-04-14T21:11:02.232Z,5.45
2018-04-14T21:13:28.871Z,5.75
2018-04-14T21:15:55.593Z,5.95
2018-04-14T21:18:22.219Z,5.60
2018-04-14T21:20:48.846Z,5.65
2018-04-14T21:23:15.528Z,5.65
2018-04-14T21:25:42.251Z,6.25
2018-04-14T21:28:08.908Z,5.87
2018-04-14T21:30:35.527Z,6.43
2018-04-14T21:33:02.290Z,6.90
2018-04-14T21:35:28.915Z,7.00
2018-04-14T21:37:55.647Z,6.75
2018-04-14T21:40:22.291Z,5.72
2018-04-14T21:42:48.985Z,5.75
2018-04-14T21:45:15.622Z,6.25
2018-04-14T21:47:42.247Z,5.80
2018-04-14T21:50:08.939Z,5.85
2018-04-14T21:52:35.589Z,6.03
2018-04-14T21:55:02.221Z,5.82
2018-04-14T21:57:28.963Z,6.43
2018-04-14T21:59:55.633Z,6.45
2018-04-14T22:02:22.241Z,5.30
2018-04-14T22:04:48.877Z,5.90
2018-04-14T22:07:15.507Z,6.05
2018-04-14T22:09:42.135Z,5.60
2018-04-14T22:12:08.755Z,5.07
2018-04-14T22:14:35.400Z,5.35
2018-04-14T22:17:02.126Z,5.30
2018-04-14T22:19:28.711Z,5.85
2018-04-14T22:21:55.344Z,4.75
2018-04-14T22:24:21.974Z,4.68
2018-04-14T22:26:48.640Z,5.40
2018-04-14T22:29:15.295Z,5.15
2018-04-14T22:31:41.920Z,5.18
2018-04-14T22:34:08.559Z,5.80
2018-04-14T22:36:35.192Z,5.10
2018-04-14T22:39:01.932Z,5.25
2018-04-14T22:41:28.661Z,6.20
2018-04-14T22:43:55.279Z,5.28
2018-04-14T22:46:21.947Z,4.93
2018-04-14T22:48:48.562Z,4.40
2018-04-14T22:51:15.251Z,5.10
2018-04-14T22:53:41.876Z,5.47
2018-04-14T22:56:08.605Z,4.75
2018-04-14T22:58:35.355Z,5.32
2018-04-14T23:01:01.973Z,4.65
2018-04-14T23:03:28.632Z,5.82
2018-04-14T23:05:55.248Z,5.15
2018-04-14T23:08:21.903Z,5.25
2018-04-14T23:10:48.535Z,5.05
2018-04-14T23:13:15.165Z,5.47
2018-04-14T23:15:41.815Z,5.87
2018-04-14T23:18:08.460Z,6.35
2018-04-14T23:20:35.092Z,5.87
2018-04-14T23:23:01.834Z,6.97
2018-04-14T23:25:28.458Z,6.40
2018-04-14T23:27:55.099Z,6.85
2018-04-14T23:30:21.724Z,7.15
2018-04-14T23:32:48.394Z,6.18
2018-04-14T23:35:15.027Z,6.40
2018-04-14T23:37:41.667Z,7.15
2018-04-14T23:40:08.335Z,7.80
2018-04-14T23:42:35.045Z,7.87
2018-04-14T23:45:01.684Z,8.45
2018-04-14T23:47:28.425Z,8.13
2018-04-14T23:49:55.053Z,8.95
2018-04-14T23:52:21.702Z,8.57
2018-04-14T23:54:48.339Z,9.65
2018-04-14T23:57:14.968Z,8.73
2018-04-14T23:59:41.599Z,7.87
